sensor_id;sensor_type;location;lat;lon;timestamp;P1;durP1;ratioP1;P2;durP2;ratioP2
22250;SDS011;59348;52.158;5.588;2022-10-16T00:00:40;6.72;;;2.53;;
22250;SDS011;59348;52.158;5.588;2022-10-16T00:03:07;7.90;;;2.58;;
22250;SDS011;59348;52.158;5.588;2022-10-16T00:05:37;7.80;;;2.60;;
22250;SDS011;59348;52.158;5.588;2022-10-16T00:08:05;10.40;;;2.90;;
22250;SDS011;59348;52.158;5.588;2022-10-16T00:10:33;8.30;;;2.95;;
22250;SDS011;59348;52.158;5.588;2022-10-16T00:13:00;10.48;;;3.00;;
22250;SDS011;59348;52.158;5.588;2022-10-16T00:15:28;5.32;;;2.80;;
22250;SDS011;59348;52.158;5.588;2022-10-16T00:17:56;5.70;;;2.95;;
22250;SDS011;59348;52.158;5.588;2022-10-16T00:20:24;7.78;;;2.95;;
22250;SDS011;59348;52.158;5.588;2022-10-16T00:22:51;8.00;;;3.00;;
22250;SDS011;59348;52.158;5.588;2022-10-16T00:25:18;10.65;;;3.40;;
22250;SDS011;59348;52.158;5.588;2022-10-16T00:27:46;6.95;;;3.15;;
22250;SDS011;59348;52.158;5.588;2022-10-16T00:30:13;7.82;;;3.10;;
22250;SDS011;59348;52.158;5.588;2022-10-16T00:32:40;7.30;;;2.97;;
22250;SDS011;59348;52.158;5.588;2022-10-16T00:35:09;6.72;;;3.00;;
22250;SDS011;59348;52.158;5.588;2022-10-16T00:37:37;6.82;;;2.95;;
22250;SDS011;59348;52.158;5.588;2022-10-16T00:40:04;7.18;;;2.90;;
22250;SDS011;59348;52.158;5.588;2022-10-16T00:42:31;6.28;;;2.80;;
22250;SDS011;59348;52.158;5.588;2022-10-16T00:44:59;6.82;;;3.35;;
22250;SDS011;59348;52.158;5.588;2022-10-16T00:47:27;6.03;;;2.95;;
22250;SDS011;59348;52.158;5.588;2022-10-16T00:49:56;6.47;;;2.70;;
22250;SDS011;59348;52.158;5.588;2022-10-16T00:52:26;4.70;;;2.72;;
22250;SDS011;59348;52.158;5.588;2022-10-16T00:54:53;8.07;;;2.88;;
22250;SDS011;59348;52.158;5.588;2022-10-16T00:57:21;6.75;;;2.78;;
22250;SDS011;59348;52.158;5.588;2022-10-16T00:59:49;10.32;;;3.10;;
22250;SDS011;59348;52.158;5.588;2022-10-16T01:02:16;5.07;;;2.83;;
22250;SDS011;59348;52.158;5.588;2022-10-16T01:04:44;6.30;;;2.88;;
22250;SDS011;59348;52.158;5.588;2022-10-16T01:07:14;9.02;;;3.05;;
22250;SDS011;59348;52.158;5.588;2022-10-16T01:09:47;5.63;;;3.00;;
22250;SDS011;59348;52.158;5.588;2022-10-16T01:12:17;8.18;;;2.72;;
22250;SDS011;59348;52.158;5.588;2022-10-16T01:14:47;7.80;;;2.90;;
22250;SDS011;59348;52.158;5.588;2022-10-16T01:17:16;5.35;;;2.65;;
22250;SDS011;59348;52.158;5.588;2022-10-16T01:22:30;5.72;;;2.88;;
22250;SDS011;59348;52.158;5.588;2022-10-16T01:25:01;4.47;;;2.65;;
22250;SDS011;59348;52.158;5.588;2022-10-16T01:27:33;7.05;;;2.83;;
22250;SDS011;59348;52.158;5.588;2022-10-16T01:30:04;5.68;;;2.53;;
22250;SDS011;59348;52.158;5.588;2022-10-16T01:32:36;4.80;;;2.70;;
22250;SDS011;59348;52.158;5.588;2022-10-16T01:35:05;5.43;;;2.70;;
22250;SDS011;59348;52.158;5.588;2022-10-16T01:37:36;7.00;;;2.80;;
22250;SDS011;59348;52.158;5.588;2022-10-16T01:40:05;6.60;;;2.55;;
22250;SDS011;59348;52.158;5.588;2022-10-16T01:42:36;4.60;;;2.45;;
22250;SDS011;59348;52.158;5.588;2022-10-16T01:45:04;3.92;;;2.38;;
22250;SDS011;59348;52.158;5.588;2022-10-16T01:47:32;7.00;;;2.83;;
22250;SDS011;59348;52.158;5.588;2022-10-16T01:50:02;5.50;;;2.75;;
22250;SDS011;59348;52.158;5.588;2022-10-16T01:52:30;6.20;;;2.85;;
22250;SDS011;59348;52.158;5.588;2022-10-16T01:54:59;4.22;;;2.83;;
22250;SDS011;59348;52.158;5.588;2022-10-16T01:57:28;6.78;;;2.70;;
22250;SDS011;59348;52.158;5.588;2022-10-16T01:59:58;5.53;;;2.92;;
22250;SDS011;59348;52.158;5.588;2022-10-16T02:02:28;4.60;;;2.88;;
22250;SDS011;59348;52.158;5.588;2022-10-16T02:04:57;5.63;;;2.70;;
22250;SDS011;59348;52.158;5.588;2022-10-16T02:07:25;3.92;;;2.60;;
22250;SDS011;59348;52.158;5.588;2022-10-16T02:09:52;5.07;;;3.03;;
22250;SDS011;59348;52.158;5.588;2022-10-16T02:12:21;6.25;;;3.00;;
22250;SDS011;59348;52.158;5.588;2022-10-16T02:14:49;4.40;;;2.88;;
22250;SDS011;59348;52.158;5.588;2022-10-16T02:17:18;5.03;;;3.15;;
22250;SDS011;59348;52.158;5.588;2022-10-16T02:19:46;4.82;;;2.80;;
22250;SDS011;59348;52.158;5.588;2022-10-16T02:22:15;5.32;;;3.30;;
22250;SDS011;59348;52.158;5.588;2022-10-16T02:24:47;4.75;;;3.13;;
22250;SDS011;59348;52.158;5.588;2022-10-16T02:27:17;4.88;;;3.25;;
22250;SDS011;59348;52.158;5.588;2022-10-16T02:29:47;6.15;;;2.88;;
22250;SDS011;59348;52.158;5.588;2022-10-16T02:32:19;7.20;;;3.17;;
22250;SDS011;59348;52.158;5.588;2022-10-16T02:34:47;7.03;;;2.88;;
22250;SDS011;59348;52.158;5.588;2022-10-16T02:37:15;4.93;;;3.22;;
22250;SDS011;59348;52.158;5.588;2022-10-16T02:39:43;3.97;;;2.83;;
22250;SDS011;59348;52.158;5.588;2022-10-16T02:42:11;6.95;;;2.92;;
22250;SDS011;59348;52.158;5.588;2022-10-16T02:44:38;4.28;;;2.78;;
22250;SDS011;59348;52.158;5.588;2022-10-16T02:47:06;6.18;;;3.00;;
22250;SDS011;59348;52.158;5.588;2022-10-16T02:49:34;7.10;;;2.92;;
22250;SDS011;59348;52.158;5.588;2022-10-16T02:52:02;10.00;;;3.10;;
22250;SDS011;59348;52.158;5.588;2022-10-16T02:54:29;4.72;;;2.97;;
22250;SDS011;59348;52.158;5.588;2022-10-16T02:56:56;4.15;;;2.83;;
22250;SDS011;59348;52.158;5.588;2022-10-16T02:59:24;5.40;;;2.97;;
22250;SDS011;59348;52.158;5.588;2022-10-16T03:01:51;5.68;;;3.05;;
22250;SDS011;59348;52.158;5.588;2022-10-16T03:04:18;5.00;;;2.80;;
22250;SDS011;59348;52.158;5.588;2022-10-16T03:06:47;5.50;;;2.97;;
22250;SDS011;59348;52.158;5.588;2022-10-16T03:09:14;5.05;;;2.80;;
22250;SDS011;59348;52.158;5.588;2022-10-16T03:11:42;8.35;;;2.85;;
22250;SDS011;59348;52.158;5.588;2022-10-16T03:14:09;4.72;;;2.90;;
22250;SDS011;59348;52.158;5.588;2022-10-16T03:16:36;6.07;;;3.10;;
22250;SDS011;59348;52.158;5.588;2022-10-16T03:19:03;4.55;;;2.88;;
22250;SDS011;59348;52.158;5.588;2022-10-16T03:21:31;3.92;;;2.83;;
22250;SDS011;59348;52.158;5.588;2022-10-16T03:23:59;7.82;;;3.15;;
22250;SDS011;59348;52.158;5.588;2022-10-16T03:26:26;3.25;;;2.75;;
22250;SDS011;59348;52.158;5.588;2022-10-16T03:28:54;7.85;;;2.65;;
22250;SDS011;59348;52.158;5.588;2022-10-16T03:31:21;3.80;;;2.95;;
22250;SDS011;59348;52.158;5.588;2022-10-16T03:33:48;6.25;;;3.15;;
22250;SDS011;59348;52.158;5.588;2022-10-16T03:36:16;5.32;;;3.03;;
22250;SDS011;59348;52.158;5.588;2022-10-16T03:38:43;5.65;;;3.42;;
22250;SDS011;59348;52.158;5.588;2022-10-16T03:41:12;4.32;;;3.15;;
22250;SDS011;59348;52.158;5.588;2022-10-16T03:43:39;6.22;;;2.80;;
22250;SDS011;59348;52.158;5.588;2022-10-16T03:46:06;4.32;;;2.90;;
22250;SDS011;59348;52.158;5.588;2022-10-16T03:48:34;6.35;;;3.10;;
22250;SDS011;59348;52.158;5.588;2022-10-16T03:51:01;4.80;;;3.10;;
22250;SDS011;59348;52.158;5.588;2022-10-16T03:53:28;6.30;;;3.05;;
22250;SDS011;59348;52.158;5.588;2022-10-16T03:55:56;3.80;;;2.90;;
22250;SDS011;59348;52.158;5.588;2022-10-16T03:58:24;6.07;;;3.10;;
22250;SDS011;59348;52.158;5.588;2022-10-16T04:00:52;4.28;;;2.67;;
22250;SDS011;59348;52.158;5.588;2022-10-16T04:03:19;5.95;;;3.00;;
22250;SDS011;59348;52.158;5.588;2022-10-16T04:05:46;5.65;;;3.20;;
22250;SDS011;59348;52.158;5.588;2022-10-16T04:08:14;5.93;;;3.03;;
22250;SDS011;59348;52.158;5.588;2022-10-16T04:10:42;7.45;;;3.17;;
22250;SDS011;59348;52.158;5.588;2022-10-16T04:13:09;5.38;;;2.80;;
22250;SDS011;59348;52.158;5.588;2022-10-16T04:15:38;4.55;;;2.70;;
22250;SDS011;59348;52.158;5.588;2022-10-16T04:18:05;5.65;;;2.67;;
22250;SDS011;59348;52.158;5.588;2022-10-16T04:20:32;4.60;;;2.88;;
22250;SDS011;59348;52.158;5.588;2022-10-16T04:23:00;6.78;;;2.47;;
22250;SDS011;59348;52.158;5.588;2022-10-16T04:25:27;4.57;;;2.42;;
22250;SDS011;59348;52.158;5.588;2022-10-16T04:27:54;4.25;;;2.40;;
22250;SDS011;59348;52.158;5.588;2022-10-16T04:30:22;7.35;;;2.50;;
22250;SDS011;59348;52.158;5.588;2022-10-16T04:32:51;3.83;;;2.58;;
22250;SDS011;59348;52.158;5.588;2022-10-16T04:35:19;5.57;;;2.78;;
22250;SDS011;59348;52.158;5.588;2022-10-16T04:37:47;6.65;;;2.58;;
22250;SDS011;59348;52.158;5.588;2022-10-16T04:40:15;4.85;;;2.47;;
22250;SDS011;59348;52.158;5.588;2022-10-16T04:42:43;6.93;;;2.70;;
22250;SDS011;59348;52.158;5.588;2022-10-16T04:45:10;4.93;;;2.55;;
22250;SDS011;59348;52.158;5.588;2022-10-16T04:47:38;4.47;;;2.72;;
22250;SDS011;59348;52.158;5.588;2022-10-16T04:50:06;4.30;;;2.70;;
22250;SDS011;59348;52.158;5.588;2022-10-16T04:52:34;6.07;;;2.50;;
22250;SDS011;59348;52.158;5.588;2022-10-16T04:55:01;5.00;;;2.45;;
22250;SDS011;59348;52.158;5.588;2022-10-16T04:57:29;6.18;;;2.70;;
22250;SDS011;59348;52.158;5.588;2022-10-16T04:59:58;4.20;;;2.67;;
22250;SDS011;59348;52.158;5.588;2022-10-16T05:02:26;5.18;;;2.83;;
22250;SDS011;59348;52.158;5.588;2022-10-16T05:04:53;4.22;;;2.70;;
22250;SDS011;59348;52.158;5.588;2022-10-16T05:07:21;6.28;;;2.70;;
22250;SDS011;59348;52.158;5.588;2022-10-16T05:09:49;4.85;;;2.40;;
22250;SDS011;59348;52.158;5.588;2022-10-16T05:12:16;5.25;;;2.38;;
22250;SDS011;59348;52.158;5.588;2022-10-16T05:14:44;3.60;;;2.70;;
22250;SDS011;59348;52.158;5.588;2022-10-16T05:17:11;5.88;;;2.13;;
22250;SDS011;59348;52.158;5.588;2022-10-16T05:19:38;4.93;;;2.58;;
22250;SDS011;59348;52.158;5.588;2022-10-16T05:22:05;5.97;;;2.88;;
22250;SDS011;59348;52.158;5.588;2022-10-16T05:24:34;5.97;;;2.47;;
22250;SDS011;59348;52.158;5.588;2022-10-16T05:27:01;4.68;;;2.50;;
22250;SDS011;59348;52.158;5.588;2022-10-16T05:29:29;10.32;;;2.78;;
22250;SDS011;59348;52.158;5.588;2022-10-16T05:31:57;5.65;;;2.92;;
22250;SDS011;59348;52.158;5.588;2022-10-16T05:34:24;7.30;;;3.40;;
22250;SDS011;59348;52.158;5.588;2022-10-16T05:36:51;4.93;;;2.88;;
22250;SDS011;59348;52.158;5.588;2022-10-16T05:39:19;6.03;;;3.70;;
22250;SDS011;59348;52.158;5.588;2022-10-16T05:41:49;7.03;;;3.67;;
22250;SDS011;59348;52.158;5.588;2022-10-16T05:44:17;8.07;;;3.78;;
22250;SDS011;59348;52.158;5.588;2022-10-16T05:46:45;8.25;;;4.38;;
22250;SDS011;59348;52.158;5.588;2022-10-16T05:49:13;12.90;;;4.35;;
22250;SDS011;59348;52.158;5.588;2022-10-16T05:51:40;9.77;;;4.60;;
22250;SDS011;59348;52.158;5.588;2022-10-16T05:54:07;8.20;;;4.97;;
22250;SDS011;59348;52.158;5.588;2022-10-16T05:56:35;9.50;;;4.75;;
22250;SDS011;59348;52.158;5.588;2022-10-16T05:59:04;8.23;;;4.78;;
22250;SDS011;59348;52.158;5.588;2022-10-16T06:01:31;8.10;;;4.85;;
22250;SDS011;59348;52.158;5.588;2022-10-16T06:03:59;9.57;;;5.20;;
22250;SDS011;59348;52.158;5.588;2022-10-16T06:06:26;8.27;;;4.80;;
22250;SDS011;59348;52.158;5.588;2022-10-16T06:08:55;7.80;;;5.22;;
22250;SDS011;59348;52.158;5.588;2022-10-16T06:11:23;10.98;;;5.28;;
22250;SDS011;59348;52.158;5.588;2022-10-16T06:13:51;9.45;;;5.05;;
22250;SDS011;59348;52.158;5.588;2022-10-16T06:16:20;10.50;;;5.35;;
22250;SDS011;59348;52.158;5.588;2022-10-16T06:18:47;10.00;;;5.03;;
22250;SDS011;59348;52.158;5.588;2022-10-16T06:21:16;7.13;;;5.07;;
22250;SDS011;59348;52.158;5.588;2022-10-16T06:23:43;9.35;;;5.13;;
22250;SDS011;59348;52.158;5.588;2022-10-16T06:26:12;9.05;;;5.22;;
22250;SDS011;59348;52.158;5.588;2022-10-16T06:28:40;11.45;;;5.30;;
22250;SDS011;59348;52.158;5.588;2022-10-16T06:31:08;10.68;;;5.40;;
22250;SDS011;59348;52.158;5.588;2022-10-16T06:33:37;12.35;;;5.15;;
22250;SDS011;59348;52.158;5.588;2022-10-16T06:36:05;7.22;;;5.18;;
22250;SDS011;59348;52.158;5.588;2022-10-16T06:38:33;6.70;;;4.85;;
22250;SDS011;59348;52.158;5.588;2022-10-16T06:41:00;7.38;;;4.60;;
22250;SDS011;59348;52.158;5.588;2022-10-16T06:43:28;7.68;;;4.50;;
22250;SDS011;59348;52.158;5.588;2022-10-16T06:45:57;9.73;;;4.45;;
22250;SDS011;59348;52.158;5.588;2022-10-16T06:48:25;9.60;;;4.50;;
22250;SDS011;59348;52.158;5.588;2022-10-16T06:50:57;6.85;;;4.05;;
22250;SDS011;59348;52.158;5.588;2022-10-16T06:53:26;7.18;;;4.03;;
22250;SDS011;59348;52.158;5.588;2022-10-16T06:55:53;7.07;;;4.22;;
22250;SDS011;59348;52.158;5.588;2022-10-16T06:58:21;7.43;;;3.97;;
22250;SDS011;59348;52.158;5.588;2022-10-16T07:00:48;6.15;;;3.53;;
22250;SDS011;59348;52.158;5.588;2022-10-16T07:03:16;7.68;;;3.92;;
22250;SDS011;59348;52.158;5.588;2022-10-16T07:05:43;6.82;;;3.40;;
22250;SDS011;59348;52.158;5.588;2022-10-16T07:08:12;8.45;;;4.05;;
22250;SDS011;59348;52.158;5.588;2022-10-16T07:10:39;7.40;;;3.53;;
22250;SDS011;59348;52.158;5.588;2022-10-16T07:13:06;6.15;;;3.33;;
22250;SDS011;59348;52.158;5.588;2022-10-16T07:15:34;9.95;;;3.90;;
22250;SDS011;59348;52.158;5.588;2022-10-16T07:18:01;5.53;;;3.60;;
22250;SDS011;59348;52.158;5.588;2022-10-16T07:20:29;6.55;;;3.63;;
22250;SDS011;59348;52.158;5.588;2022-10-16T07:22:56;4.97;;;2.97;;
22250;SDS011;59348;52.158;5.588;2022-10-16T07:25:25;6.50;;;3.10;;
22250;SDS011;59348;52.158;5.588;2022-10-16T07:27:52;5.47;;;3.10;;
22250;SDS011;59348;52.158;5.588;2022-10-16T07:30:22;9.02;;;2.97;;
22250;SDS011;59348;52.158;5.588;2022-10-16T07:32:49;6.40;;;2.70;;
22250;SDS011;59348;52.158;5.588;2022-10-16T07:35:16;6.25;;;2.85;;
22250;SDS011;59348;52.158;5.588;2022-10-16T07:37:44;5.72;;;2.72;;
22250;SDS011;59348;52.158;5.588;2022-10-16T07:40:11;5.90;;;2.45;;
22250;SDS011;59348;52.158;5.588;2022-10-16T07:42:40;5.90;;;2.90;;
22250;SDS011;59348;52.158;5.588;2022-10-16T07:45:08;8.73;;;2.78;;
22250;SDS011;59348;52.158;5.588;2022-10-16T07:47:35;6.43;;;3.20;;
22250;SDS011;59348;52.158;5.588;2022-10-16T07:50:03;6.03;;;2.67;;
22250;SDS011;59348;52.158;5.588;2022-10-16T07:52:30;5.88;;;2.60;;
22250;SDS011;59348;52.158;5.588;2022-10-16T07:54:57;5.43;;;2.63;;
22250;SDS011;59348;52.158;5.588;2022-10-16T07:57:25;7.75;;;2.42;;
22250;SDS011;59348;52.158;5.588;2022-10-16T07:59:53;5.68;;;2.38;;
22250;SDS011;59348;52.158;5.588;2022-10-16T08:02:20;5.63;;;2.67;;
22250;SDS011;59348;52.158;5.588;2022-10-16T08:04:48;7.00;;;2.85;;
22250;SDS011;59348;52.158;5.588;2022-10-16T08:07:15;6.03;;;2.75;;
22250;SDS011;59348;52.158;5.588;2022-10-16T08:09:42;5.22;;;2.75;;
22250;SDS011;59348;52.158;5.588;2022-10-16T08:12:09;6.63;;;2.92;;
22250;SDS011;59348;52.158;5.588;2022-10-16T08:14:37;4.97;;;2.65;;
22250;SDS011;59348;52.158;5.588;2022-10-16T08:17:05;7.50;;;3.22;;
22250;SDS011;59348;52.158;5.588;2022-10-16T08:19:33;6.47;;;3.15;;
22250;SDS011;59348;52.158;5.588;2022-10-16T08:22:00;6.07;;;3.20;;
22250;SDS011;59348;52.158;5.588;2022-10-16T08:24:27;9.32;;;3.28;;
22250;SDS011;59348;52.158;5.588;2022-10-16T08:26:56;5.53;;;3.08;;
22250;SDS011;59348;52.158;5.588;2022-10-16T08:29:23;7.70;;;3.00;;
22250;SDS011;59348;52.158;5.588;2022-10-16T08:31:51;6.68;;;3.00;;
22250;SDS011;59348;52.158;5.588;2022-10-16T08:34:19;8.10;;;3.15;;
22250;SDS011;59348;52.158;5.588;2022-10-16T08:36:47;4.57;;;2.70;;
22250;SDS011;59348;52.158;5.588;2022-10-16T08:39:15;5.82;;;2.88;;
22250;SDS011;59348;52.158;5.588;2022-10-16T08:44:30;5.47;;;2.60;;
22250;SDS011;59348;52.158;5.588;2022-10-16T08:47:05;6.32;;;3.00;;
22250;SDS011;59348;52.158;5.588;2022-10-16T08:49:34;5.18;;;2.65;;
22250;SDS011;59348;52.158;5.588;2022-10-16T08:52:02;3.78;;;2.45;;
22250;SDS011;59348;52.158;5.588;2022-10-16T08:54:31;7.85;;;3.08;;
22250;SDS011;59348;52.158;5.588;2022-10-16T08:57:07;7.70;;;2.50;;
22250;SDS011;59348;52.158;5.588;2022-10-16T08:59:35;8.43;;;2.85;;
22250;SDS011;59348;52.158;5.588;2022-10-16T09:02:02;8.07;;;2.42;;
22250;SDS011;59348;52.158;5.588;2022-10-16T09:04:46;11.57;;;2.95;;
22250;SDS011;59348;52.158;5.588;2022-10-16T09:07:17;7.13;;;2.90;;
22250;SDS011;59348;52.158;5.588;2022-10-16T09:09:51;9.05;;;2.97;;
22250;SDS011;59348;52.158;5.588;2022-10-16T09:12:21;6.32;;;2.80;;
22250;SDS011;59348;52.158;5.588;2022-10-16T09:14:56;7.47;;;2.92;;
22250;SDS011;59348;52.158;5.588;2022-10-16T09:17:28;8.43;;;2.85;;
22250;SDS011;59348;52.158;5.588;2022-10-16T09:20:01;10.68;;;2.55;;
22250;SDS011;59348;52.158;5.588;2022-10-16T09:22:30;5.30;;;2.33;;
22250;SDS011;59348;52.158;5.588;2022-10-16T09:24:59;7.25;;;2.63;;
22250;SDS011;59348;52.158;5.588;2022-10-16T09:27:27;8.30;;;2.40;;
22250;SDS011;59348;52.158;5.588;2022-10-16T09:29:55;13.82;;;2.78;;
22250;SDS011;59348;52.158;5.588;2022-10-16T09:32:22;16.08;;;3.00;;
22250;SDS011;59348;52.158;5.588;2022-10-16T09:34:50;12.20;;;2.60;;
22250;SDS011;59348;52.158;5.588;2022-10-16T09:37:21;11.68;;;2.40;;
22250;SDS011;59348;52.158;5.588;2022-10-16T09:39:49;11.45;;;2.53;;
22250;SDS011;59348;52.158;5.588;2022-10-16T09:42:17;13.20;;;2.58;;
22250;SDS011;59348;52.158;5.588;2022-10-16T09:44:47;15.88;;;2.45;;
22250;SDS011;59348;52.158;5.588;2022-10-16T09:47:16;13.27;;;2.85;;
22250;SDS011;59348;52.158;5.588;2022-10-16T09:49:52;8.63;;;2.65;;
22250;SDS011;59348;52.158;5.588;2022-10-16T09:52:21;12.48;;;3.00;;
22250;SDS011;59348;52.158;5.588;2022-10-16T09:54:49;12.43;;;2.85;;
22250;SDS011;59348;52.158;5.588;2022-10-16T09:57:17;10.15;;;2.58;;
22250;SDS011;59348;52.158;5.588;2022-10-16T09:59:46;12.25;;;3.00;;
22250;SDS011;59348;52.158;5.588;2022-10-16T10:02:14;15.25;;;3.22;;
22250;SDS011;59348;52.158;5.588;2022-10-16T10:04:44;13.77;;;3.10;;
22250;SDS011;59348;52.158;5.588;2022-10-16T10:07:18;12.38;;;2.90;;
22250;SDS011;59348;52.158;5.588;2022-10-16T10:09:47;13.80;;;2.88;;
22250;SDS011;59348;52.158;5.588;2022-10-16T10:12:17;18.90;;;3.20;;
22250;SDS011;59348;52.158;5.588;2022-10-16T10:14:46;10.63;;;2.45;;
22250;SDS011;59348;52.158;5.588;2022-10-16T10:17:15;12.07;;;2.72;;
22250;SDS011;59348;52.158;5.588;2022-10-16T10:19:45;11.80;;;2.50;;
22250;SDS011;59348;52.158;5.588;2022-10-16T10:22:16;15.95;;;2.75;;
22250;SDS011;59348;52.158;5.588;2022-10-16T10:24:44;9.30;;;2.60;;
22250;SDS011;59348;52.158;5.588;2022-10-16T10:27:14;9.63;;;2.33;;
22250;SDS011;59348;52.158;5.588;2022-10-16T10:29:45;11.77;;;3.00;;
22250;SDS011;59348;52.158;5.588;2022-10-16T10:32:17;8.05;;;2.25;;
22250;SDS011;59348;52.158;5.588;2022-10-16T10:34:52;8.27;;;2.53;;
22250;SDS011;59348;52.158;5.588;2022-10-16T10:37:29;12.35;;;2.22;;
22250;SDS011;59348;52.158;5.588;2022-10-16T10:40:00;8.57;;;2.33;;
22250;SDS011;59348;52.158;5.588;2022-10-16T10:42:34;12.02;;;2.50;;
22250;SDS011;59348;52.158;5.588;2022-10-16T10:45:11;12.85;;;2.42;;
22250;SDS011;59348;52.158;5.588;2022-10-16T10:47:43;16.38;;;2.55;;
22250;SDS011;59348;52.158;5.588;2022-10-16T10:50:14;10.10;;;2.38;;
22250;SDS011;59348;52.158;5.588;2022-10-16T10:52:48;9.68;;;2.38;;
22250;SDS011;59348;52.158;5.588;2022-10-16T10:55:20;13.95;;;2.67;;
22250;SDS011;59348;52.158;5.588;2022-10-16T10:57:57;9.00;;;2.38;;
22250;SDS011;59348;52.158;5.588;2022-10-16T11:00:28;11.82;;;2.53;;
22250;SDS011;59348;52.158;5.588;2022-10-16T11:02:58;12.35;;;2.40;;
22250;SDS011;59348;52.158;5.588;2022-10-16T11:05:31;12.73;;;2.83;;
22250;SDS011;59348;52.158;5.588;2022-10-16T11:08:02;13.20;;;2.60;;
22250;SDS011;59348;52.158;5.588;2022-10-16T11:10:42;12.05;;;2.45;;
22250;SDS011;59348;52.158;5.588;2022-10-16T11:13:17;12.88;;;2.05;;
22250;SDS011;59348;52.158;5.588;2022-10-16T11:15:47;12.02;;;2.38;;
22250;SDS011;59348;52.158;5.588;2022-10-16T11:18:16;10.02;;;2.60;;
22250;SDS011;59348;52.158;5.588;2022-10-16T11:20:45;11.60;;;2.50;;
22250;SDS011;59348;52.158;5.588;2022-10-16T11:23:15;13.77;;;2.55;;
22250;SDS011;59348;52.158;5.588;2022-10-16T11:25:43;12.23;;;2.30;;
22250;SDS011;59348;52.158;5.588;2022-10-16T11:28:11;9.07;;;2.28;;
22250;SDS011;59348;52.158;5.588;2022-10-16T11:30:43;12.63;;;2.28;;
22250;SDS011;59348;52.158;5.588;2022-10-16T11:33:21;12.68;;;2.53;;
22250;SDS011;59348;52.158;5.588;2022-10-16T11:35:51;8.25;;;2.20;;
22250;SDS011;59348;52.158;5.588;2022-10-16T11:38:22;10.35;;;2.50;;
22250;SDS011;59348;52.158;5.588;2022-10-16T11:40:51;8.52;;;2.17;;
22250;SDS011;59348;52.158;5.588;2022-10-16T11:43:24;13.88;;;2.28;;
22250;SDS011;59348;52.158;5.588;2022-10-16T11:45:53;9.50;;;2.05;;
22250;SDS011;59348;52.158;5.588;2022-10-16T11:48:24;11.05;;;1.90;;
22250;SDS011;59348;52.158;5.588;2022-10-16T11:50:56;9.55;;;2.20;;
22250;SDS011;59348;52.158;5.588;2022-10-16T11:53:28;9.77;;;2.10;;
22250;SDS011;59348;52.158;5.588;2022-10-16T11:55:57;11.82;;;2.35;;
22250;SDS011;59348;52.158;5.588;2022-10-16T11:58:25;8.45;;;2.00;;
22250;SDS011;59348;52.158;5.588;2022-10-16T12:00:59;7.05;;;2.08;;
22250;SDS011;59348;52.158;5.588;2022-10-16T12:03:28;8.73;;;2.15;;
22250;SDS011;59348;52.158;5.588;2022-10-16T12:06:00;9.45;;;1.83;;
22250;SDS011;59348;52.158;5.588;2022-10-16T12:08:32;7.72;;;2.10;;
22250;SDS011;59348;52.158;5.588;2022-10-16T12:11:06;8.05;;;2.08;;
22250;SDS011;59348;52.158;5.588;2022-10-16T12:13:35;10.05;;;1.90;;
22250;SDS011;59348;52.158;5.588;2022-10-16T12:16:05;11.30;;;2.20;;
22250;SDS011;59348;52.158;5.588;2022-10-16T12:18:33;8.93;;;2.10;;
22250;SDS011;59348;52.158;5.588;2022-10-16T12:21:00;8.75;;;2.10;;
22250;SDS011;59348;52.158;5.588;2022-10-16T12:23:31;8.48;;;2.00;;
22250;SDS011;59348;52.158;5.588;2022-10-16T12:25:59;9.63;;;2.55;;
22250;SDS011;59348;52.158;5.588;2022-10-16T12:28:28;9.55;;;2.00;;
22250;SDS011;59348;52.158;5.588;2022-10-16T12:30:57;11.07;;;2.20;;
22250;SDS011;59348;52.158;5.588;2022-10-16T12:33:27;10.93;;;2.22;;
22250;SDS011;59348;52.158;5.588;2022-10-16T12:35:54;11.20;;;2.03;;
22250;SDS011;59348;52.158;5.588;2022-10-16T12:38:24;12.10;;;2.38;;
22250;SDS011;59348;52.158;5.588;2022-10-16T12:40:56;9.77;;;2.17;;
22250;SDS011;59348;52.158;5.588;2022-10-16T12:43:27;11.85;;;2.30;;
22250;SDS011;59348;52.158;5.588;2022-10-16T12:45:58;9.15;;;2.10;;
22250;SDS011;59348;52.158;5.588;2022-10-16T12:48:27;10.82;;;2.40;;
22250;SDS011;59348;52.158;5.588;2022-10-16T12:50:55;10.18;;;2.30;;
22250;SDS011;59348;52.158;5.588;2022-10-16T12:53:23;8.40;;;1.83;;
22250;SDS011;59348;52.158;5.588;2022-10-16T12:55:54;7.68;;;1.65;;
22250;SDS011;59348;52.158;5.588;2022-10-16T12:58:28;12.35;;;2.20;;
22250;SDS011;59348;52.158;5.588;2022-10-16T13:01:02;9.20;;;1.95;;
22250;SDS011;59348;52.158;5.588;2022-10-16T13:06:16;9.20;;;2.00;;
22250;SDS011;59348;52.158;5.588;2022-10-16T13:08:51;7.93;;;1.90;;
22250;SDS011;59348;52.158;5.588;2022-10-16T13:11:22;11.00;;;2.20;;
22250;SDS011;59348;52.158;5.588;2022-10-16T13:13:56;11.18;;;1.80;;
22250;SDS011;59348;52.158;5.588;2022-10-16T13:16:29;9.35;;;2.00;;
22250;SDS011;59348;52.158;5.588;2022-10-16T13:19:02;10.75;;;1.90;;
22250;SDS011;59348;52.158;5.588;2022-10-16T13:21:38;13.25;;;2.20;;
22250;SDS011;59348;52.158;5.588;2022-10-16T13:24:13;9.98;;;1.98;;
22250;SDS011;59348;52.158;5.588;2022-10-16T13:26:44;10.23;;;2.30;;
22250;SDS011;59348;52.158;5.588;2022-10-16T13:29:13;9.85;;;2.20;;
22250;SDS011;59348;52.158;5.588;2022-10-16T13:31:41;13.18;;;2.28;;
22250;SDS011;59348;52.158;5.588;2022-10-16T13:34:11;11.35;;;2.42;;
22250;SDS011;59348;52.158;5.588;2022-10-16T13:36:44;13.30;;;2.30;;
22250;SDS011;59348;52.158;5.588;2022-10-16T13:39:13;13.95;;;2.30;;
22250;SDS011;59348;52.158;5.588;2022-10-16T13:41:42;9.57;;;2.20;;
22250;SDS011;59348;52.158;5.588;2022-10-16T13:44:12;10.60;;;2.30;;
22250;SDS011;59348;52.158;5.588;2022-10-16T13:46:40;11.75;;;2.30;;
22250;SDS011;59348;52.158;5.588;2022-10-16T13:49:12;12.23;;;2.28;;
22250;SDS011;59348;52.158;5.588;2022-10-16T13:51:39;10.32;;;2.30;;
22250;SDS011;59348;52.158;5.588;2022-10-16T13:54:09;13.50;;;2.33;;
22250;SDS011;59348;52.158;5.588;2022-10-16T13:56:38;11.23;;;2.38;;
22250;SDS011;59348;52.158;5.588;2022-10-16T13:59:07;12.43;;;2.40;;
22250;SDS011;59348;52.158;5.588;2022-10-16T14:01:48;11.60;;;2.60;;
22250;SDS011;59348;52.158;5.588;2022-10-16T14:04:17;9.48;;;2.30;;
22250;SDS011;59348;52.158;5.588;2022-10-16T14:06:45;12.90;;;2.25;;
22250;SDS011;59348;52.158;5.588;2022-10-16T14:09:14;9.68;;;2.00;;
22250;SDS011;59348;52.158;5.588;2022-10-16T14:11:46;10.38;;;2.10;;
22250;SDS011;59348;52.158;5.588;2022-10-16T14:14:16;10.05;;;2.33;;
22250;SDS011;59348;52.158;5.588;2022-10-16T14:16:44;7.28;;;2.00;;
22250;SDS011;59348;52.158;5.588;2022-10-16T14:19:14;8.93;;;2.00;;
22250;SDS011;59348;52.158;5.588;2022-10-16T14:21:44;9.10;;;2.03;;
22250;SDS011;59348;52.158;5.588;2022-10-16T14:24:13;10.52;;;2.10;;
22250;SDS011;59348;52.158;5.588;2022-10-16T14:26:41;11.30;;;2.20;;
22250;SDS011;59348;52.158;5.588;2022-10-16T14:29:10;12.65;;;2.40;;
22250;SDS011;59348;52.158;5.588;2022-10-16T14:31:38;11.85;;;2.00;;
22250;SDS011;59348;52.158;5.588;2022-10-16T14:36:47;10.18;;;2.60;;
22250;SDS011;59348;52.158;5.588;2022-10-16T14:39:17;13.27;;;2.42;;
22250;SDS011;59348;52.158;5.588;2022-10-16T14:41:46;11.82;;;2.47;;
22250;SDS011;59348;52.158;5.588;2022-10-16T14:44:14;11.60;;;2.40;;
22250;SDS011;59348;52.158;5.588;2022-10-16T14:46:44;14.68;;;2.35;;
22250;SDS011;59348;52.158;5.588;2022-10-16T14:49:15;11.63;;;2.50;;
22250;SDS011;59348;52.158;5.588;2022-10-16T14:51:43;11.07;;;2.42;;
22250;SDS011;59348;52.158;5.588;2022-10-16T14:54:11;14.60;;;2.80;;
22250;SDS011;59348;52.158;5.588;2022-10-16T14:56:44;14.32;;;2.17;;
22250;SDS011;59348;52.158;5.588;2022-10-16T14:59:13;9.27;;;2.15;;
22250;SDS011;59348;52.158;5.588;2022-10-16T15:01:42;9.35;;;2.40;;
22250;SDS011;59348;52.158;5.588;2022-10-16T15:04:10;13.18;;;2.28;;